Archival Weather

Snohomish County (Paine Fld)

Everett, Washington (KPAE)

Report from: Wednesday, November 22, 2023 7:53 AM PST
Current time: Friday, June 21, 2024 4:21 PM PDT

Current weather – Weather history – Daily summaries
Weather forecast

Temperature7.8°C (46.0°F)
Wind chill5.8°C (42.5°F)
Dew point6.1°C (43.0°F)
Winds 6 kts (3.1 m/s, 6.9 mph) North (350°)
Visibility8 mi. (12.9 km)
Clouds Ceiling: Overcast 300 ft. (91 m)
Altimeter30.37 in.Hg (1028 mB)
Relative humidity89 %
Density altitude-1,254 ft. (-382 m)
Sea-level pressure102.9 kPa (1029 mB, 30.38 in.Hg)
Remarks Automated weather observing station with precipitation discriminator
Flight conditions Low Instrument Meteorological Conditions
Raw dataKPAE 221553Z 35006KT 8SM OVC003 08/06 A3037 RMK AO2 SLP288 T00780061
An error has occurred. This application may no longer respond until reloaded. Reload 🗙